Time;durP1;ratioP1;P1;durP2;ratioP2;P2;SDS_P1;SDS_P2;PMS_P1;PMS_P2;Temp;Humidity;BMP_temperature;BMP_pressure;BME280_temperature;BME280_humidity;BME280_pressure;Samples;Min_cycle;Max_cycle;Signal;HPM_P1;HPM_P2
2022/06/15 00:02:12;;;;;;;;;;;;;;;12.91;38.05;95764.91;5062658;28;20070;-65
2022/06/15 00:04:37;;;;;;;;;;;;;;;12.88;37.79;95764.47;5063422;28;20009;-64
2022/06/15 00:07:02;;;;;;;;;;;;;;;12.72;38.07;95761.00;5051714;28;20459;-65
2022/06/15 00:09:28;;;;;;;;;;;;;;;12.55;39.58;95752.41;5061788;28;19991;-65
2022/06/15 00:11:53;;;;;;;;;;;;;;;12.75;38.22;95759.81;5063179;28;19997;-65
2022/06/15 00:14:20;;;;;;;;;;;;;;;12.72;38.19;95762.88;5062904;28;19999;-65
2022/06/15 00:16:45;;;;;;;;;;;;;;;12.64;38.63;95766.47;5062171;28;20050;-65
2022/06/15 00:19:10;;;;;;;;;;;;;;;12.73;38.06;95753.81;5063392;28;19967;-65
2022/06/15 00:21:35;;;;;;;;;;;;;;;12.99;38.05;95753.31;5061395;28;19992;-65
2022/06/15 00:24:01;;;;;;;;;;;;;;;13.16;37.61;95748.53;5063322;28;19973;-64
2022/06/15 00:26:26;;;;;;;;;;;;;;;13.15;37.80;95756.75;5059394;28;20448;-65
2022/06/15 00:28:51;;;;;;;;;;;;;;;13.27;37.05;95751.72;5063607;28;20314;-65
2022/06/15 00:31:17;;;;;;;;;;;;;;;13.26;36.67;95744.72;5063460;28;20036;-64
2022/06/15 00:33:42;;;;;;;;;;;;;;;13.39;36.47;95752.84;5062129;28;20027;-64
2022/06/15 00:36:09;;;;;;;;;;;;;;;13.48;36.50;95755.38;5050797;28;19985;-64
2022/06/15 00:38:35;;;;;;;;;;;;;;;13.50;36.42;95750.69;5031957;28;19990;-65
2022/06/15 00:41:00;;;;;;;;;;;;;;;13.54;35.99;95754.63;5062092;28;19987;-65
2022/06/15 00:43:45;;;;;;;;;;;;;;;13.56;36.51;95753.41;5052159;28;19965;-64
2022/06/15 00:46:21;;;;;;;;;;;;;;;13.56;36.18;95750.72;5049808;28;20510;-65
2022/06/15 00:48:47;;;;;;;;;;;;;;;13.64;35.59;95749.78;5051042;28;20048;-64
2022/06/15 00:51:13;;;;;;;;;;;;;;;13.74;35.34;95744.09;5042729;28;20422;-65
2022/06/15 00:53:38;;;;;;;;;;;;;;;13.67;35.33;95744.00;5052163;28;19993;-65
2022/06/15 00:56:04;;;;;;;;;;;;;;;13.70;36.68;95754.34;5061890;28;19961;-65
2022/06/15 00:58:29;;;;;;;;;;;;;;;13.80;34.76;95740.63;5062193;28;20027;-65
2022/06/15 01:00:56;;;;;;;;;;;;;;;13.79;35.15;95747.00;5060799;28;20515;-65
2022/06/15 01:03:21;;;;;;;;;;;;;;;13.86;34.89;95744.34;5062720;28;19969;-65
2022/06/15 01:05:56;;;;;;;;;;;;;;;13.59;35.60;95741.50;5061789;28;20056;-65
2022/06/15 01:08:24;;;;;;;;;;;;;;;13.70;35.19;95738.28;5054055;28;20006;-65
2022/06/15 01:10:50;;;;;;;;;;;;;;;13.82;34.90;95740.41;5078478;28;19964;-65
2022/06/15 01:13:15;;;;;;;;;;;;;;;13.83;34.67;95739.38;5062063;28;20373;-65
2022/06/15 01:15:42;;;;;;;;;;;;;;;13.57;36.13;95741.69;5061549;28;20074;-66
2022/06/15 01:18:26;;;;;;;;;;;;;;;13.66;35.02;95736.19;5077205;28;19987;-65
2022/06/15 01:21:27;;;;;;;;;;;;;;;13.63;35.65;95739.28;5060895;28;20238;-65
2022/06/15 01:24:01;;;;;;;;;;;;;;;13.35;36.09;95727.53;5012211;28;20013;-65
2022/06/15 01:26:29;;;;;;;;;;;;;;;13.37;36.51;95730.00;5052967;28;19988;-66
2022/06/15 01:29:01;;;;;;;;;;;;;;;13.35;35.98;95729.34;5061399;28;19982;-65
2022/06/15 01:31:34;;;;;;;;;;;;;;;13.46;35.76;95728.84;5031264;28;20225;-66
2022/06/15 01:34:17;;;;;;;;;;;;;;;13.41;35.59;95728.59;5043008;28;20240;-65
2022/06/15 01:36:57;;;;;;;;;;;;;;;13.59;34.78;95733.47;5048270;28;20612;-65
2022/06/15 01:39:22;;;;;;;;;;;;;;;13.66;34.93;95728.16;5061243;28;19963;-66
2022/06/15 01:41:51;;;;;;;;;;;;;;;13.61;35.06;95723.41;5059736;28;19991;-65
2022/06/15 01:44:39;;;;;;;;;;;;;;;13.63;34.50;95723.22;5062014;28;19967;-66
2022/06/15 01:47:05;;;;;;;;;;;;;;;13.59;35.47;95722.78;5046729;28;20043;-65
2022/06/15 01:49:33;;;;;;;;;;;;;;;13.64;34.88;95722.19;5043203;28;20534;-66
2022/06/15 01:51:58;;;;;;;;;;;;;;;13.52;35.17;95719.22;5030371;28;19992;-66
2022/06/15 01:54:33;;;;;;;;;;;;;;;13.43;35.36;95716.69;5064590;28;20056;-65
2022/06/15 01:56:58;;;;;;;;;;;;;;;13.31;35.36;95720.91;5061214;28;20044;-65
2022/06/15 01:59:28;;;;;;;;;;;;;;;13.08;36.69;95715.78;5027285;28;20542;-65
2022/06/15 02:02:02;;;;;;;;;;;;;;;12.98;36.52;95714.22;5075709;28;19993;-66
2022/06/15 02:04:30;;;;;;;;;;;;;;;13.02;36.46;95717.38;5059972;28;19994;-66
2022/06/15 02:07:14;;;;;;;;;;;;;;;12.94;36.81;95715.63;5043345;28;20416;-66
2022/06/15 02:09:55;;;;;;;;;;;;;;;12.93;37.38;95712.09;5060503;28;19992;-65
2022/06/15 02:12:21;;;;;;;;;;;;;;;12.95;36.47;95711.09;5060350;28;20242;-65
2022/06/15 02:14:58;;;;;;;;;;;;;;;12.84;36.67;95709.75;5030313;28;19984;-65
2022/06/15 02:17:33;;;;;;;;;;;;;;;12.68;37.20;95711.66;5043080;28;19988;-66
2022/06/15 02:20:00;;;;;;;;;;;;;;;12.73;36.82;95714.59;5048709;28;19960;-66
2022/06/15 02:22:27;;;;;;;;;;;;;;;12.73;37.42;95709.25;5042614;28;19989;-66
2022/06/15 02:24:53;;;;;;;;;;;;;;;12.74;37.09;95712.72;5030136;28;19982;-66
2022/06/15 02:27:18;;;;;;;;;;;;;;;12.81;37.05;95713.63;5061616;28;20023;-66
2022/06/15 02:29:43;;;;;;;;;;;;;;;12.64;37.88;95705.88;5029551;28;19994;-66
2022/06/15 02:32:09;;;;;;;;;;;;;;;12.75;36.75;95703.72;5076585;28;20429;-66
2022/06/15 02:34:34;;;;;;;;;;;;;;;12.70;37.17;95711.47;5060575;28;19992;-65
2022/06/15 02:36:59;;;;;;;;;;;;;;;12.69;38.08;95710.66;5060668;28;20482;-66
2022/06/15 02:39:25;;;;;;;;;;;;;;;12.70;37.32;95703.44;5039232;28;19964;-66
2022/06/15 02:41:57;;;;;;;;;;;;;;;12.69;37.12;95702.63;5060617;28;19998;-66
2022/06/15 02:44:22;;;;;;;;;;;;;;;12.71;37.10;95699.78;5048945;28;20409;-65
2022/06/15 02:46:47;;;;;;;;;;;;;;;12.58;37.59;95692.44;5078603;28;20010;-65
2022/06/15 02:49:13;;;;;;;;;;;;;;;12.30;38.30;95695.84;5080022;28;20517;-66
2022/06/15 02:51:54;;;;;;;;;;;;;;;12.09;38.70;95700.91;5046913;28;20258;-65
2022/06/15 02:54:20;;;;;;;;;;;;;;;12.17;38.21;95688.50;5073990;28;20010;-66
2022/06/15 02:56:45;;;;;;;;;;;;;;;12.29;38.37;95689.66;5063617;28;20307;-66
2022/06/15 02:59:10;;;;;;;;;;;;;;;12.22;38.70;95688.75;5079929;28;19973;-65
2022/06/15 03:01:35;;;;;;;;;;;;;;;12.30;37.86;95687.81;5063663;28;20327;-65
2022/06/15 03:04:01;;;;;;;;;;;;;;;12.14;38.40;95679.81;5079140;28;20427;-66
2022/06/15 03:06:27;;;;;;;;;;;;;;;12.23;38.07;95677.88;5063067;28;19993;-66
2022/06/15 03:08:52;;;;;;;;;;;;;;;12.32;37.68;95683.13;5064446;28;20022;-65
2022/06/15 03:11:18;;;;;;;;;;;;;;;12.29;37.53;95678.97;5063542;28;20278;-66
2022/06/15 03:13:43;;;;;;;;;;;;;;;12.32;37.40;95686.63;5050361;28;20021;-66
2022/06/15 03:16:08;;;;;;;;;;;;;;;12.28;38.22;95680.00;5063658;28;19998;-66
2022/06/15 03:18:34;;;;;;;;;;;;;;;12.26;38.42;95682.03;5063986;28;19989;-66
2022/06/15 03:20:59;;;;;;;;;;;;;;;12.22;38.29;95680.75;5052417;28;20400;-66
2022/06/15 03:23:26;;;;;;;;;;;;;;;11.99;39.53;95685.16;5062354;28;20005;-66
2022/06/15 03:26:01;;;;;;;;;;;;;;;11.66;39.16;95682.84;5063181;28;19991;-66
2022/06/15 03:28:26;;;;;;;;;;;;;;;11.83;39.48;95680.03;5063476;28;20016;-66
2022/06/15 03:30:52;;;;;;;;;;;;;;;11.73;39.83;95672.31;5063238;28;19966;-66
2022/06/15 03:33:17;;;;;;;;;;;;;;;11.76;40.90;95679.91;5063769;28;19989;-66
2022/06/15 03:35:42;;;;;;;;;;;;;;;11.93;39.74;95682.41;5055385;28;20086;-66
2022/06/15 03:38:08;;;;;;;;;;;;;;;11.70;39.61;95678.00;5054227;28;20394;-66
2022/06/15 03:40:44;;;;;;;;;;;;;;;11.79;40.29;95690.22;5055117;28;19967;-66
2022/06/15 03:43:09;;;;;;;;;;;;;;;12.01;39.65;95682.31;5078441;28;19998;-67
2022/06/15 03:45:34;;;;;;;;;;;;;;;11.97;39.03;95691.69;5063371;28;20013;-66
2022/06/15 03:47:59;;;;;;;;;;;;;;;12.19;38.99;95686.44;5063151;28;19996;-66
2022/06/15 03:50:25;;;;;;;;;;;;;;;12.32;39.29;95681.28;5049885;28;19991;-66
2022/06/15 03:52:51;;;;;;;;;;;;;;;12.34;39.29;95684.56;5062647;28;20341;-67
2022/06/15 03:55:16;;;;;;;;;;;;;;;12.46;39.15;95686.75;5063565;28;20013;-66
2022/06/15 03:57:42;;;;;;;;;;;;;;;12.66;38.32;95682.47;5041719;28;20024;-66
2022/06/15 04:00:07;;;;;;;;;;;;;;;12.52;37.99;95686.81;5061970;28;19970;-66
2022/06/15 04:02:32;;;;;;;;;;;;;;;12.81;37.94;95684.25;5055502;28;20084;-66
2022/06/15 04:04:58;;;;;;;;;;;;;;;12.88;38.00;95690.47;5062775;28;20263;-66
2022/06/15 04:10:10;;;;;;;;;;;;;;;13.00;37.87;95677.47;5063341;28;20381;-66
2022/06/15 04:12:35;;;;;;;;;;;;;;;13.10;37.57;95677.16;5032267;28;19969;-66
2022/06/15 04:15:01;;;;;;;;;;;;;;;13.13;37.67;95674.06;5063577;28;20359;-66
2022/06/15 04:17:26;;;;;;;;;;;;;;;13.18;37.55;95671.66;5061948;28;20076;-66
2022/06/15 04:22:35;;;;;;;;;;;;;;;13.25;37.43;95678.91;5061916;28;20026;-67
2022/06/15 04:25:00;;;;;;;;;;;;;;;13.39;37.22;95677.97;5062440;28;20009;-66
2022/06/15 04:27:26;;;;;;;;;;;;;;;13.55;37.02;95679.53;5051696;28;19972;-66
2022/06/15 04:29:51;;;;;;;;;;;;;;;13.66;36.78;95669.31;5062130;28;19986;-67
2022/06/15 04:32:16;;;;;;;;;;;;;;;13.79;36.82;95676.59;5061370;28;19965;-66
2022/06/15 04:34:42;;;;;;;;;;;;;;;13.31;37.22;95678.13;5062463;28;19981;-66
2022/06/15 04:37:07;;;;;;;;;;;;;;;13.57;36.71;95674.00;5061717;28;19992;-66
2022/06/15 04:39:32;;;;;;;;;;;;;;;13.69;36.81;95675.09;5062336;28;20058;-67
2022/06/15 04:41:57;;;;;;;;;;;;;;;13.74;36.36;95671.00;5061723;28;19977;-66
2022/06/15 04:44:23;;;;;;;;;;;;;;;13.90;36.33;95676.06;5061801;28;19964;-66
2022/06/15 04:46:48;;;;;;;;;;;;;;;13.93;36.23;95673.00;5061922;28;20388;-66
2022/06/15 04:49:13;;;;;;;;;;;;;;;13.86;36.33;95677.47;5062384;28;20356;-67
2022/06/15 04:51:39;;;;;;;;;;;;;;;13.97;36.47;95675.28;5058044;28;19961;-67
2022/06/15 04:54:09;;;;;;;;;;;;;;;14.24;35.92;95678.91;5051774;28;19985;-67
2022/06/15 04:56:34;;;;;;;;;;;;;;;14.35;35.96;95672.16;5060371;28;19996;-67
2022/06/15 04:59:00;;;;;;;;;;;;;;;14.51;35.61;95680.88;5060843;28;20304;-67
2022/06/15 05:01:25;;;;;;;;;;;;;;;14.61;35.72;95681.28;5057462;28;20020;-67
2022/06/15 05:03:50;;;;;;;;;;;;;;;14.79;35.54;95677.25;5061618;28;19964;-67
2022/06/15 05:06:21;;;;;;;;;;;;;;;14.90;35.36;95684.69;5050206;28;20463;-66
2022/06/15 05:08:46;;;;;;;;;;;;;;;15.01;35.16;95685.09;5060797;28;20527;-67
2022/06/15 05:11:12;;;;;;;;;;;;;;;15.07;35.22;95684.28;5058086;28;20073;-67
2022/06/15 05:13:37;;;;;;;;;;;;;;;15.32;34.95;95686.34;5062640;28;20440;-66
2022/06/15 05:16:02;;;;;;;;;;;;;;;15.39;34.67;95680.97;5062139;28;19964;-66
2022/06/15 05:18:27;;;;;;;;;;;;;;;15.65;34.51;95680.16;5060894;28;19982;-67
2022/06/15 05:20:53;;;;;;;;;;;;;;;15.67;34.43;95671.91;5049383;28;20330;-67
2022/06/15 05:23:19;;;;;;;;;;;;;;;15.97;34.04;95674.91;5059292;28;19947;-67
2022/06/15 05:25:44;;;;;;;;;;;;;;;16.17;33.71;95686.63;5061634;28;19987;-66
2022/06/15 05:28:09;;;;;;;;;;;;;;;16.24;33.79;95682.06;5061386;28;19989;-66
2022/06/15 05:30:35;;;;;;;;;;;;;;;16.41;33.21;95690.50;5049399;28;19981;-66
2022/06/15 05:33:00;;;;;;;;;;;;;;;16.51;33.13;95687.34;5051366;28;20400;-66
2022/06/15 05:35:26;;;;;;;;;;;;;;;16.65;32.84;95688.09;5049286;28;20486;-66
2022/06/15 05:37:51;;;;;;;;;;;;;;;16.77;32.42;95685.56;5051937;28;19973;-66
2022/06/15 05:40:17;;;;;;;;;;;;;;;16.98;32.48;95687.06;5050509;28;20438;-67
2022/06/15 05:42:42;;;;;;;;;;;;;;;17.29;32.51;95689.97;5052856;28;19984;-67
2022/06/15 05:45:08;;;;;;;;;;;;;;;17.54;32.34;95689.13;5051985;28;19965;-67
2022/06/15 05:47:33;;;;;;;;;;;;;;;17.73;31.79;95689.19;5057512;28;19950;-67
2022/06/15 05:49:59;;;;;;;;;;;;;;;17.67;31.76;95680.94;5051873;28;20435;-67
2022/06/15 05:52:24;;;;;;;;;;;;;;;17.86;31.16;95685.56;5061980;28;19948;-66
2022/06/15 05:54:49;;;;;;;;;;;;;;;17.96;30.31;95683.19;5037563;28;20287;-66
2022/06/15 05:57:18;;;;;;;;;;;;;;;18.17;30.12;95691.84;5060965;28;19967;-66
2022/06/15 05:59:44;;;;;;;;;;;;;;;18.30;29.97;95689.03;5052258;28;19943;-66
2022/06/15 06:02:10;;;;;;;;;;;;;;;18.48;29.97;95689.19;5057215;28;20362;-66
2022/06/15 06:04:35;;;;;;;;;;;;;;;18.66;29.64;95691.09;5059824;28;19970;-66
2022/06/15 06:07:00;;;;;;;;;;;;;;;18.82;29.27;95693.13;5057662;28;20147;-67
2022/06/15 06:09:27;;;;;;;;;;;;;;;18.94;29.65;95700.44;5049712;28;19963;-66
2022/06/15 06:11:52;;;;;;;;;;;;;;;19.11;29.43;95699.78;5054488;28;19987;-66
2022/06/15 06:14:18;;;;;;;;;;;;;;;19.29;29.54;95690.81;5055982;28;19972;-66
2022/06/15 06:16:43;;;;;;;;;;;;;;;19.44;28.49;95693.88;5053743;28;20289;-66
2022/06/15 06:19:08;;;;;;;;;;;;;;;19.60;28.69;95696.94;5052274;28;20283;-66
2022/06/15 06:21:34;;;;;;;;;;;;;;;19.68;29.05;95693.88;5058650;28;19968;-66
2022/06/15 06:23:59;;;;;;;;;;;;;;;19.82;28.41;95694.47;5059907;28;20299;-67
2022/06/15 06:26:28;;;;;;;;;;;;;;;20.02;28.30;95693.31;5049241;28;20452;-66
2022/06/15 06:28:54;;;;;;;;;;;;;;;20.20;28.12;95694.22;5060525;28;20083;-67
2022/06/15 06:31:20;;;;;;;;;;;;;;;20.13;27.93;95688.97;5061586;28;20484;-66
2022/06/15 06:33:45;;;;;;;;;;;;;;;20.17;27.13;95694.69;5054845;28;19962;-67
2022/06/15 06:36:17;;;;;;;;;;;;;;;20.33;26.30;95685.84;5056079;28;19974;-67
2022/06/15 06:38:42;;;;;;;;;;;;;;;20.52;27.32;95684.84;5038133;28;19961;-66
2022/06/15 06:41:07;;;;;;;;;;;;;;;20.63;27.43;95691.31;5039752;28;19955;-66
2022/06/15 06:43:33;;;;;;;;;;;;;;;20.64;26.34;95691.09;5039819;28;19943;-66
2022/06/15 06:45:58;;;;;;;;;;;;;;;20.76;26.29;95692.91;5047806;28;19966;-66
2022/06/15 06:48:23;;;;;;;;;;;;;;;21.01;26.49;95700.69;5024313;28;19941;-66
2022/06/15 06:50:50;;;;;;;;;;;;;;;21.28;26.03;95702.75;5054691;28;20529;-66
2022/06/15 06:53:16;;;;;;;;;;;;;;;21.16;26.15;95704.69;5057739;28;19954;-67
2022/06/15 06:55:41;;;;;;;;;;;;;;;21.45;25.19;95700.06;5041772;28;20319;-67
2022/06/15 06:58:06;;;;;;;;;;;;;;;21.59;25.47;95691.63;5060524;28;19960;-66
2022/06/15 07:00:32;;;;;;;;;;;;;;;21.76;25.22;95702.44;5030696;28;19953;-67
2022/06/15 07:02:58;;;;;;;;;;;;;;;21.81;24.57;95696.25;5061287;28;19935;-66
2022/06/15 07:05:23;;;;;;;;;;;;;;;21.93;24.72;95704.34;5056198;28;20405;-66
2022/06/15 07:07:48;;;;;;;;;;;;;;;22.04;25.05;95703.41;5061255;28;19955;-66
2022/06/15 07:10:14;;;;;;;;;;;;;;;22.10;23.64;95702.38;5057486;28;20428;-66
2022/06/15 07:12:42;;;;;;;;;;;;;;;22.17;24.18;95709.53;5056528;28;20348;-66
2022/06/15 07:15:08;;;;;;;;;;;;;;;22.14;24.51;95705.44;5055843;28;20358;-66
2022/06/15 07:17:33;;;;;;;;;;;;;;;22.39;23.33;95707.66;5054141;28;19956;-66
2022/06/15 07:19:58;;;;;;;;;;;;;;;22.52;23.86;95714.59;5057483;28;20039;-66
2022/06/15 07:22:23;;;;;;;;;;;;;;;22.64;23.30;95708.25;5050709;28;19955;-66
2022/06/15 07:24:49;;;;;;;;;;;;;;;22.75;23.87;95704.56;5057415;28;19995;-66
2022/06/15 07:27:15;;;;;;;;;;;;;;;23.03;23.39;95704.56;5057052;28;19931;-65
2022/06/15 07:29:40;;;;;;;;;;;;;;;23.26;22.33;95713.50;5058656;28;20264;-66
2022/06/15 07:32:06;;;;;;;;;;;;;;;23.41;22.48;95713.63;5043984;28;19928;-67
2022/06/15 07:34:31;;;;;;;;;;;;;;;23.46;21.80;95712.03;5056527;28;20424;-66
2022/06/15 07:36:56;;;;;;;;;;;;;;;23.69;21.28;95714.38;5057857;28;20268;-66
2022/06/15 07:39:22;;;;;;;;;;;;;;;23.49;21.21;95717.75;5048341;28;19917;-67
2022/06/15 07:41:48;;;;;;;;;;;;;;;23.75;22.23;95722.59;5047258;28;19969;-66
2022/06/15 07:44:13;;;;;;;;;;;;;;;24.10;19.93;95715.75;5057699;28;20433;-66
2022/06/15 07:46:38;;;;;;;;;;;;;;;24.05;21.16;95716.56;5060304;28;20084;-65
2022/06/15 07:51:51;;;;;;;;;;;;;;;23.59;21.29;95713.50;5069343;28;20391;-66
2022/06/15 07:54:17;;;;;;;;;;;;;;;23.84;21.95;95715.63;5056956;28;20400;-67
2022/06/15 07:56:42;;;;;;;;;;;;;;;24.17;20.66;95707.38;5060234;28;19920;-66
2022/06/15 07:59:07;;;;;;;;;;;;;;;24.43;21.70;95712.94;5059083;28;20362;-66
2022/06/15 08:01:33;;;;;;;;;;;;;;;24.48;22.28;95725.75;5056398;28;19982;-66
2022/06/15 08:03:58;;;;;;;;;;;;;;;24.77;20.72;95711.69;5060068;28;19955;-66
2022/06/15 08:06:23;;;;;;;;;;;;;;;24.52;20.64;95713.25;5054920;28;19975;-66
2022/06/15 08:08:49;;;;;;;;;;;;;;;24.77;20.81;95714.41;5060308;28;20053;-67
2022/06/15 08:11:14;;;;;;;;;;;;;;;25.00;19.98;95704.16;5049705;28;20539;-66
2022/06/15 08:13:39;;;;;;;;;;;;;;;24.87;20.84;95714.47;5053342;28;20324;-66
2022/06/15 08:16:04;;;;;;;;;;;;;;;24.74;20.85;95706.81;5051236;28;19920;-66
2022/06/15 08:18:30;;;;;;;;;;;;;;;24.98;19.56;95704.44;5059880;28;20373;-66
2022/06/15 08:20:57;;;;;;;;;;;;;;;25.06;20.62;95708.53;5037826;28;19934;-66
2022/06/15 08:23:23;;;;;;;;;;;;;;;25.22;19.97;95709.41;5037516;28;20384;-66
2022/06/15 08:25:49;;;;;;;;;;;;;;;25.21;20.57;95714.00;5059011;28;19924;-66
2022/06/15 08:28:15;;;;;;;;;;;;;;;25.43;18.84;95703.94;5073994;28;19917;-66
2022/06/15 08:30:41;;;;;;;;;;;;;;;25.50;19.63;95701.81;5067633;28;19924;-67
2022/06/15 08:33:06;;;;;;;;;;;;;;;25.84;20.00;95709.38;5057445;28;19924;-66
2022/06/15 08:35:32;;;;;;;;;;;;;;;26.03;19.70;95711.56;5057595;28;19963;-66
2022/06/15 08:37:57;;;;;;;;;;;;;;;26.13;19.18;95704.47;5048841;28;20374;-66
2022/06/15 08:40:22;;;;;;;;;;;;;;;26.29;18.95;95705.22;5050724;28;19920;-65
2022/06/15 08:42:57;;;;;;;;;;;;;;;25.69;19.51;95698.50;5052585;28;19971;-66
2022/06/15 08:45:29;;;;;;;;;;;;;;;25.76;19.38;95717.31;5048295;28;20015;-66
2022/06/15 08:47:58;;;;;;;;;;;;;;;25.85;19.89;95710.19;5046678;28;20378;-66
2022/06/15 08:50:23;;;;;;;;;;;;;;;25.96;19.52;95714.53;5053245;28;19925;-66
2022/06/15 08:52:56;;;;;;;;;;;;;;;25.92;19.92;95720.81;5051854;28;19928;-66
2022/06/15 08:55:27;;;;;;;;;;;;;;;26.23;19.55;95718.88;5051158;28;19927;-66
2022/06/15 08:57:56;;;;;;;;;;;;;;;26.13;19.80;95718.91;5047603;28;19935;-66
2022/06/15 09:00:26;;;;;;;;;;;;;;;25.97;19.41;95718.91;5058613;28;19973;-67
2022/06/15 09:02:54;;;;;;;;;;;;;;;26.22;18.71;95719.97;5056106;28;19916;-66
2022/06/15 09:05:25;;;;;;;;;;;;;;;26.14;19.83;95717.00;5056945;28;19924;-65
2022/06/15 09:07:57;;;;;;;;;;;;;;;26.39;19.57;95718.81;5051804;28;20043;-66
2022/06/15 09:10:25;;;;;;;;;;;;;;;26.68;19.74;95714.66;5044888;28;20444;-66
2022/06/15 09:12:55;;;;;;;;;;;;;;;26.74;18.23;95725.25;5051953;28;20339;-66
2022/06/15 09:15:27;;;;;;;;;;;;;;;26.83;18.42;95724.66;5054856;28;19947;-66
2022/06/15 09:17:53;;;;;;;;;;;;;;;26.84;18.48;95729.84;5032055;28;20340;-65
2022/06/15 09:20:21;;;;;;;;;;;;;;;26.87;18.75;95718.38;5039427;28;19924;-65
2022/06/15 09:22:48;;;;;;;;;;;;;;;27.07;19.62;95727.53;5055813;28;19928;-65
2022/06/15 09:25:13;;;;;;;;;;;;;;;27.58;18.42;95730.19;5038138;28;19928;-66
2022/06/15 09:27:39;;;;;;;;;;;;;;;27.36;19.28;95726.00;5054829;28;19920;-65
2022/06/15 09:30:06;;;;;;;;;;;;;;;27.70;18.94;95729.88;5051689;28;19924;-66
2022/06/15 09:32:39;;;;;;;;;;;;;;;27.75;18.20;95729.81;5036244;28;19966;-66
2022/06/15 09:35:08;;;;;;;;;;;;;;;27.86;18.87;95731.34;5057620;28;19975;-65
2022/06/15 09:37:33;;;;;;;;;;;;;;;28.00;18.31;95726.00;5033388;28;19928;-65
2022/06/15 09:39:59;;;;;;;;;;;;;;;28.05;18.08;95722.41;5031088;28;19920;-67
2022/06/15 09:42:28;;;;;;;;;;;;;;;27.71;19.76;95723.28;5064934;28;20647;-67
2022/06/15 09:45:02;;;;;;;;;;;;;;;28.00;19.12;95723.28;5054397;28;19932;-66
2022/06/15 09:47:33;;;;;;;;;;;;;;;28.32;18.08;95723.81;5055184;28;19920;-65
2022/06/15 09:50:02;;;;;;;;;;;;;;;28.44;18.46;95717.91;5052913;28;20205;-67
2022/06/15 09:52:30;;;;;;;;;;;;;;;28.63;17.45;95720.69;5058166;28;19916;-64
2022/06/15 09:55:13;;;;;;;;;;;;;;;28.65;18.39;95714.94;5055882;28;19920;-75
2022/06/15 09:57:39;;;;;;;;;;;;;;;28.11;17.97;95714.97;5065612;28;19963;-73
2022/06/15 10:00:06;;;;;;;;;;;;;;;28.20;18.48;95723.38;5047585;28;19931;-76
2022/06/15 10:02:33;;;;;;;;;;;;;;;28.57;18.21;95721.03;5075119;28;19920;-78
2022/06/15 10:04:58;;;;;;;;;;;;;;;28.73;17.85;95718.94;5075221;28;20347;-74
2022/06/15 10:07:31;;;;;;;;;;;;;;;28.69;17.19;95716.00;5056585;28;19920;-72
2022/06/15 10:10:26;;;;;;;;;;;;;;;28.90;16.57;95715.72;5060484;28;19920;-77
2022/06/15 10:12:56;;;;;;;;;;;;;;;28.98;18.15;95717.78;5048185;28;19920;-77
2022/06/15 10:15:21;;;;;;;;;;;;;;;28.79;18.02;95718.56;5044467;28;19982;-77
2022/06/15 10:17:51;;;;;;;;;;;;;;;29.02;17.37;95718.00;5043374;28;19920;-77
2022/06/15 10:20:35;;;;;;;;;;;;;;;29.06;18.19;95710.84;5027049;28;19916;-77
2022/06/15 10:23:06;;;;;;;;;;;;;;;29.35;17.80;95696.16;5043833;28;19924;-76
2022/06/15 10:25:33;;;;;;;;;;;;;;;29.46;17.47;95707.75;5042510;28;19924;-74
2022/06/15 10:28:06;;;;;;;;;;;;;;;29.85;17.15;95702.22;5043285;28;20227;-73
2022/06/15 10:30:31;;;;;;;;;;;;;;;30.06;17.18;95716.38;5022620;28;20389;-73
2022/06/15 10:32:57;;;;;;;;;;;;;;;27.05;18.41;95720.72;5025755;28;19936;-73
2022/06/15 10:35:22;;;;;;;;;;;;;;;28.81;17.16;95715.56;5060615;28;20377;-73
2022/06/15 10:37:48;;;;;;;;;;;;;;;28.90;17.60;95713.78;5060497;28;19939;-73
2022/06/15 10:40:24;;;;;;;;;;;;;;;29.40;17.10;95703.50;5033480;28;20403;-74
2022/06/15 10:42:54;;;;;;;;;;;;;;;29.47;16.92;95706.69;5030897;28;20423;-76
2022/06/15 10:45:24;;;;;;;;;;;;;;;26.66;18.66;95714.94;5025700;28;19920;-75
2022/06/15 10:47:51;;;;;;;;;;;;;;;27.74;18.14;95707.09;5042849;28;19917;-76
2022/06/15 10:50:18;;;;;;;;;;;;;;;29.03;16.80;95705.94;5042095;28;19946;-76
2022/06/15 10:52:44;;;;;;;;;;;;;;;28.46;17.20;95715.69;5025432;28;19921;-75
2022/06/15 11:04:15;;;;;;;;;;;;;;;28.63;17.38;95712.47;5045989;28;19935;-78
2022/06/15 11:06:42;;;;;;;;;;;;;;;28.54;18.61;95706.84;5062418;28;19960;-76
2022/06/15 11:09:16;;;;;;;;;;;;;;;29.32;17.80;95701.44;5064134;28;20269;-76
2022/06/15 11:11:41;;;;;;;;;;;;;;;29.51;17.16;95704.13;5030052;28;19912;-76
2022/06/15 11:14:07;;;;;;;;;;;;;;;28.28;17.65;95701.66;5046760;28;19916;-75
2022/06/15 11:19:16;;;;;;;;;;;;;;;29.54;17.14;95704.34;5065060;28;20383;-77
2022/06/15 11:21:52;;;;;;;;;;;;;;;29.55;17.46;95703.25;5030059;28;19921;-77
2022/06/15 11:24:36;;;;;;;;;;;;;;;30.28;17.01;95687.44;5033594;28;20014;-76
2022/06/15 11:27:09;;;;;;;;;;;;;;;30.40;16.20;95686.91;5064524;28;19913;-76
2022/06/15 11:29:38;;;;;;;;;;;;;;;30.27;16.62;95691.28;5079752;28;19932;-76
2022/06/15 11:32:07;;;;;;;;;;;;;;;30.57;17.20;95689.88;5057866;28;19968;-75
2022/06/15 11:34:33;;;;;;;;;;;;;;;30.86;16.86;95693.38;5046231;28;20302;-75
2022/06/15 11:37:00;;;;;;;;;;;;;;;30.76;16.83;95688.13;5029481;28;19928;-74
2022/06/15 11:39:26;;;;;;;;;;;;;;;30.09;16.05;95696.56;5046021;28;19969;-75
2022/06/15 11:41:52;;;;;;;;;;;;;;;30.31;16.61;95698.63;5045708;28;19920;-76
2022/06/15 11:44:19;;;;;;;;;;;;;;;30.39;17.32;95694.38;5046394;28;20409;-76
2022/06/15 11:46:45;;;;;;;;;;;;;;;30.96;16.33;95695.13;5064190;28;19920;-74
2022/06/15 11:49:10;;;;;;;;;;;;;;;31.55;16.51;95698.97;5045535;28;19928;-75
2022/06/15 11:51:54;;;;;;;;;;;;;;;31.67;15.96;95696.47;5063570;28;19981;-76
2022/06/15 11:54:30;;;;;;;;;;;;;;;31.54;15.88;95697.34;5045141;28;20021;-76
2022/06/15 11:57:07;;;;;;;;;;;;;;;31.67;16.22;95690.97;5063644;28;19982;-75
2022/06/15 11:59:37;;;;;;;;;;;;;;;31.76;16.17;95688.28;5057029;28;20289;-76
2022/06/15 12:02:08;;;;;;;;;;;;;;;31.93;15.37;95689.50;5031875;28;20008;-76
2022/06/15 12:04:52;;;;;;;;;;;;;;;32.30;15.05;95690.16;5043678;28;20011;-76
2022/06/15 12:07:35;;;;;;;;;;;;;;;32.40;14.75;95685.50;5063692;28;20357;-74
2022/06/15 12:10:12;;;;;;;;;;;;;;;31.69;14.76;95677.72;5041911;28;19952;-76
2022/06/15 12:12:42;;;;;;;;;;;;;;;32.08;15.42;95678.09;5039375;28;19927;-76
2022/06/15 12:15:26;;;;;;;;;;;;;;;32.55;15.24;95682.31;5045727;28;19916;-76
2022/06/15 12:17:55;;;;;;;;;;;;;;;32.11;15.64;95680.22;5045160;28;20387;-76
2022/06/15 12:20:33;;;;;;;;;;;;;;;31.89;15.04;95678.31;5029896;28;19974;-76
2022/06/15 12:23:02;;;;;;;;;;;;;;;31.29;15.98;95672.91;5063854;28;19955;-76
2022/06/15 12:25:42;;;;;;;;;;;;;;;31.21;16.09;95669.00;5035190;28;19923;-76
2022/06/15 12:28:16;;;;;;;;;;;;;;;31.37;15.82;95667.78;5062750;28;19970;-76
2022/06/15 12:30:49;;;;;;;;;;;;;;;32.03;15.26;95669.97;5063296;28;19916;-76
2022/06/15 12:33:28;;;;;;;;;;;;;;;32.57;14.55;95669.03;5057599;28;19920;-75
2022/06/15 12:36:12;;;;;;;;;;;;;;;32.59;15.55;95664.00;5061827;28;19924;-75
2022/06/15 12:38:49;;;;;;;;;;;;;;;32.60;14.82;95673.88;5045375;28;20454;-75
2022/06/15 12:44:05;;;;;;;;;;;;;;;33.22;15.24;95667.63;5063850;28;19986;-77
2022/06/15 12:46:30;;;;;;;;;;;;;;;33.84;14.94;95662.81;5044943;28;19943;-76
2022/06/15 12:48:59;;;;;;;;;;;;;;;34.01;14.46;95663.91;5043931;28;19924;-76
2022/06/15 12:51:36;;;;;;;;;;;;;;;34.40;13.96;95667.50;5053651;28;19916;-75
2022/06/15 12:54:20;;;;;;;;;;;;;;;34.76;12.92;95664.50;5043285;28;19921;-77
2022/06/15 12:56:57;;;;;;;;;;;;;;;33.85;13.86;95660.88;5044558;28;19916;-76
2022/06/15 12:59:32;;;;;;;;;;;;;;;34.07;13.55;95662.59;5045071;28;20200;-76
2022/06/15 13:01:58;;;;;;;;;;;;;;;34.36;13.07;95660.22;5062886;28;20389;-76
2022/06/15 13:04:34;;;;;;;;;;;;;;;34.78;12.41;95657.53;5044565;28;19920;-77
2022/06/15 13:07:38;;;;;;;;;;;;;;;34.87;12.21;95664.97;5045233;28;20003;-77
2022/06/15 13:10:09;;;;;;;;;;;;;;;34.22;12.88;95660.44;4993790;28;20021;-76
2022/06/15 13:12:36;;;;;;;;;;;;;;;34.26;13.87;95653.09;4994227;28;19940;-76
2022/06/15 13:15:01;;;;;;;;;;;;;;;34.36;13.28;95652.72;5014355;28;20401;-75
2022/06/15 13:17:28;;;;;;;;;;;;;;;34.42;12.44;95658.88;5047671;28;19921;-73